Time;durP1;ratioP1;P1;durP2;ratioP2;P2;SDS_P1;SDS_P2;PMS_P1;PMS_P2;Temp;Humidity;BMP_temperature;BMP_pressure;BME280_temperature;BME280_humidity;BME280_pressure;Samples;Min_cycle;Max_cycle;Signal;HPM_P1;HPM_P2
2023/09/01 00:03:30;;;;;;;;;;;20.30;61.70;;;;;;10215472;28;95352;-68
2023/09/01 00:08:31;;;;;;;;;;;20.30;61.60;;;;;;10213298;28;93829;-68
2023/09/01 00:13:33;;;;;;;;;;;20.30;61.60;;;;;;10238303;28;93401;-69
2023/09/01 00:18:36;;;;;;;;;;;20.30;61.60;;;;;;10220468;28;96879;-68
2023/09/01 00:23:39;;;;;;;;;;;20.30;61.60;;;;;;10222670;28;94526;-68
2023/09/01 00:28:40;;;;;;;;;;;20.40;61.50;;;;;;10219693;28;93598;-71
2023/09/01 00:33:42;;;;;;;;;;;20.30;61.50;;;;;;10202859;28;93811;-71
2023/09/01 00:38:43;;;;;;;;;;;20.30;61.50;;;;;;10211118;28;94599;-71
2023/09/01 00:43:45;;;;;;;;;;;20.30;61.50;;;;;;10230367;28;94399;-68
2023/09/01 00:48:47;;;;;;;;;;;20.40;61.50;;;;;;10207362;28;94498;-72
2023/09/01 00:53:49;;;;;;;;;;;20.30;61.50;;;;;;10219114;28;93776;-71
2023/09/01 00:58:50;;;;;;;;;;;20.30;61.40;;;;;;10208232;28;93994;-71
2023/09/01 01:03:52;;;;;;;;;;;20.30;61.50;;;;;;10209495;28;94547;-71
2023/09/01 01:08:54;;;;;;;;;;;20.30;61.50;;;;;;10217323;28;95840;-72
2023/09/01 01:14:00;;;;;;;;;;;20.30;61.60;;;;;;10223493;28;94138;-71
2023/09/01 01:19:10;;;;;;;;;;;20.30;61.60;;;;;;10210731;28;93382;-71
2023/09/01 01:24:12;;;;;;;;;;;20.30;61.50;;;;;;10215262;28;94431;-71
2023/09/01 01:29:14;;;;;;;;;;;20.30;61.60;;;;;;10217598;28;96226;-71
2023/09/01 01:34:29;;;;;;;;;;;20.30;61.60;;;;;;10218067;28;93542;-71
2023/09/01 01:39:33;;;;;;;;;;;20.30;61.60;;;;;;10208996;28;94060;-71
2023/09/01 01:44:36;;;;;;;;;;;20.20;61.60;;;;;;10206371;28;93332;-71
2023/09/01 01:49:38;;;;;;;;;;;20.20;61.50;;;;;;10221675;28;93272;-72
2023/09/01 01:54:40;;;;;;;;;;;20.20;61.50;;;;;;10214076;28;94591;-72
2023/09/01 01:59:41;;;;;;;;;;;20.20;61.60;;;;;;10219590;28;95999;-72
2023/09/01 02:04:43;;;;;;;;;;;20.20;61.60;;;;;;10197532;28;94783;-71
2023/09/01 02:09:45;;;;;;;;;;;20.20;61.50;;;;;;10227150;28;94029;-71
2023/09/01 02:14:46;;;;;;;;;;;20.20;61.60;;;;;;10223383;28;94418;-71
2023/09/01 02:19:48;;;;;;;;;;;20.10;61.60;;;;;;10206881;28;94457;-72
2023/09/01 02:24:50;;;;;;;;;;;20.20;61.50;;;;;;10210306;28;94801;-71
2023/09/01 02:29:51;;;;;;;;;;;20.10;61.60;;;;;;10211167;28;94561;-71
2023/09/01 02:34:53;;;;;;;;;;;20.10;61.50;;;;;;10218531;28;93663;-72
2023/09/01 02:39:55;;;;;;;;;;;20.10;61.50;;;;;;10209257;28;92720;-71
2023/09/01 02:44:59;;;;;;;;;;;20.10;61.60;;;;;;10193939;28;94199;-72
2023/09/01 02:50:02;;;;;;;;;;;20.10;61.70;;;;;;10187426;28;96391;-72
2023/09/01 02:55:06;;;;;;;;;;;20.10;61.60;;;;;;10205505;28;93470;-71
2023/09/01 03:00:17;;;;;;;;;;;20.10;61.60;;;;;;10199461;28;94204;-71
2023/09/01 03:05:19;;;;;;;;;;;20.10;61.60;;;;;;10212850;28;93555;-72
2023/09/01 03:10:21;;;;;;;;;;;20.10;61.60;;;;;;10205969;28;93520;-72
2023/09/01 03:15:23;;;;;;;;;;;20.10;61.60;;;;;;10234737;28;94439;-72
2023/09/01 03:20:25;;;;;;;;;;;20.10;61.60;;;;;;10211992;28;94406;-72
2023/09/01 03:25:29;;;;;;;;;;;20.00;61.60;;;;;;10197240;28;93593;-72
2023/09/01 03:30:31;;;;;;;;;;;20.00;61.60;;;;;;10209308;28;93413;-71
2023/09/01 03:35:33;;;;;;;;;;;20.00;62.00;;;;;;10178814;28;94819;-71
2023/09/01 03:40:35;;;;;;;;;;;20.00;61.60;;;;;;10210243;28;96934;-71
2023/09/01 03:45:37;;;;;;;;;;;20.00;61.60;;;;;;10216544;28;94924;-72
2023/09/01 03:50:39;;;;;;;;;;;20.00;61.50;;;;;;10214868;28;94211;-71
2023/09/01 03:55:40;;;;;;;;;;;20.00;61.50;;;;;;10219423;28;93994;-71
2023/09/01 04:00:42;;;;;;;;;;;20.00;61.50;;;;;;10218909;28;94234;-71
2023/09/01 04:05:44;;;;;;;;;;;20.00;61.40;;;;;;10217515;28;93491;-72
2023/09/01 04:10:46;;;;;;;;;;;20.10;61.50;;;;;;10211378;28;94887;-72
2023/09/01 04:15:47;;;;;;;;;;;20.00;61.40;;;;;;10228902;28;93997;-72
2023/09/01 04:20:49;;;;;;;;;;;20.00;61.40;;;;;;10228431;28;93258;-72
2023/09/01 04:25:51;;;;;;;;;;;20.00;61.40;;;;;;10218495;28;94569;-72
2023/09/01 04:30:53;;;;;;;;;;;20.10;61.40;;;;;;10196836;28;96904;-72
2023/09/01 04:35:59;;;;;;;;;;;20.00;61.30;;;;;;10206873;28;93108;-72
2023/09/01 04:41:01;;;;;;;;;;;20.00;61.20;;;;;;10178674;28;93978;-71
2023/09/01 04:51:23;;;;;;;;;;;20.10;61.20;;;;;;10278242;23;94719;-70
2023/09/01 04:56:26;;;;;;;;;;;20.00;61.20;;;;;;10236653;28;94301;-71
2023/09/01 05:01:28;;;;;;;;;;;20.00;61.20;;;;;;10230658;28;93116;-72
2023/09/01 05:06:29;;;;;;;;;;;20.10;61.20;;;;;;10237558;28;93635;-71
2023/09/01 05:11:31;;;;;;;;;;;20.10;61.20;;;;;;10235539;28;94397;-71
2023/09/01 05:16:33;;;;;;;;;;;20.10;61.10;;;;;;10198699;28;93452;-71
2023/09/01 05:21:34;;;;;;;;;;;20.10;61.20;;;;;;10209956;28;96089;-71
2023/09/01 05:26:36;;;;;;;;;;;20.10;61.10;;;;;;10215029;28;93852;-71
2023/09/01 05:31:38;;;;;;;;;;;20.10;61.10;;;;;;10211767;28;94711;-72
2023/09/01 05:36:40;;;;;;;;;;;20.10;61.10;;;;;;10211257;28;93824;-72
2023/09/01 05:41:41;;;;;;;;;;;20.10;61.10;;;;;;10214352;28;94413;-71
2023/09/01 05:46:43;;;;;;;;;;;20.10;61.10;;;;;;10206454;28;94769;-71
2023/09/01 05:51:45;;;;;;;;;;;20.10;61.10;;;;;;10220961;28;94789;-71
2023/09/01 05:56:46;;;;;;;;;;;20.10;61.10;;;;;;10219375;28;93804;-71
2023/09/01 06:01:48;;;;;;;;;;;20.10;61.20;;;;;;10204506;28;93410;-71
2023/09/01 06:06:51;;;;;;;;;;;20.10;61.20;;;;;;10197222;28;93896;-72
2023/09/01 06:11:53;;;;;;;;;;;20.00;61.20;;;;;;10208491;28;97089;-72
2023/09/01 06:16:56;;;;;;;;;;;20.00;61.20;;;;;;10198965;28;94708;-73
2023/09/01 06:21:58;;;;;;;;;;;20.00;61.40;;;;;;10223509;28;94836;-72
2023/09/01 06:27:00;;;;;;;;;;;20.00;61.40;;;;;;10231796;28;94150;-73
2023/09/01 06:32:02;;;;;;;;;;;20.00;61.50;;;;;;10221371;28;94753;-72
2023/09/01 06:37:04;;;;;;;;;;;20.00;61.80;;;;;;10214259;28;93430;-68
2023/09/01 06:42:07;;;;;;;;;;;20.00;63.10;;;;;;10233630;28;94061;-72
2023/09/01 06:47:09;;;;;;;;;;;20.00;63.40;;;;;;10217371;28;92693;-71
2023/09/01 06:52:11;;;;;;;;;;;20.00;63.60;;;;;;10206807;28;94450;-71
2023/09/01 06:57:13;;;;;;;;;;;20.00;63.80;;;;;;10224312;28;93391;-70
2023/09/01 07:02:15;;;;;;;;;;;20.00;63.80;;;;;;10205433;28;95775;-71
2023/09/01 07:07:17;;;;;;;;;;;20.00;64.00;;;;;;10221219;28;94460;-74
2023/09/01 07:12:18;;;;;;;;;;;20.00;64.20;;;;;;10218738;28;93452;-68
2023/09/01 07:17:21;;;;;;;;;;;20.10;63.80;;;;;;10219718;28;94292;-68
2023/09/01 07:22:24;;;;;;;;;;;20.00;63.50;;;;;;10220725;28;93857;-68
2023/09/01 07:27:26;;;;;;;;;;;20.00;63.40;;;;;;10222836;28;94092;-68
2023/09/01 07:32:29;;;;;;;;;;;20.00;63.40;;;;;;10221998;28;94946;-68
2023/09/01 07:37:31;;;;;;;;;;;20.00;63.50;;;;;;10227859;28;93996;-68
2023/09/01 07:42:33;;;;;;;;;;;19.90;63.50;;;;;;10213321;28;94166;-65
2023/09/01 07:47:34;;;;;;;;;;;20.00;63.70;;;;;;10228249;28;93101;-68
2023/09/01 07:52:37;;;;;;;;;;;20.00;63.60;;;;;;10200593;28;97100;-68
2023/09/01 07:57:38;;;;;;;;;;;20.00;63.70;;;;;;10217317;28;94436;-68
2023/09/01 08:02:43;;;;;;;;;;;19.90;63.60;;;;;;10232255;28;94437;-67
2023/09/01 08:07:46;;;;;;;;;;;19.90;63.70;;;;;;10223178;28;94279;-68
2023/09/01 08:12:48;;;;;;;;;;;19.90;63.80;;;;;;10206522;28;94509;-68
2023/09/01 08:17:50;;;;;;;;;;;19.90;63.70;;;;;;10205691;28;93505;-68
2023/09/01 08:22:52;;;;;;;;;;;19.90;63.80;;;;;;10249209;28;94420;-68
2023/09/01 08:27:55;;;;;;;;;;;19.90;63.80;;;;;;10217888;28;92348;-68
2023/09/01 08:32:57;;;;;;;;;;;19.90;63.90;;;;;;10240429;28;93497;-68
2023/09/01 08:37:59;;;;;;;;;;;19.90;64.00;;;;;;10217141;28;94486;-68
2023/09/01 08:43:02;;;;;;;;;;;19.90;64.10;;;;;;10222702;28;95810;-68
2023/09/01 08:48:04;;;;;;;;;;;19.90;64.00;;;;;;10225316;28;94309;-67
2023/09/01 08:53:06;;;;;;;;;;;19.90;64.10;;;;;;10217902;28;93388;-68
2023/09/01 08:58:08;;;;;;;;;;;19.90;64.10;;;;;;10226683;28;93475;-68
2023/09/01 09:03:11;;;;;;;;;;;19.90;64.10;;;;;;10217333;28;94475;-68
2023/09/01 09:08:13;;;;;;;;;;;20.00;64.20;;;;;;10212728;28;94681;-68
2023/09/01 09:13:21;;;;;;;;;;;20.00;64.30;;;;;;10189027;28;93749;-68
2023/09/01 09:18:29;;;;;;;;;;;20.00;64.30;;;;;;10212943;28;92717;-68
2023/09/01 09:23:44;;;;;;;;;;;20.00;64.40;;;;;;10225646;28;93774;-68
2023/09/01 09:28:48;;;;;;;;;;;20.00;64.40;;;;;;10213631;28;93761;-68
2023/09/01 09:33:50;;;;;;;;;;;20.00;64.40;;;;;;10234932;28;96179;-68
2023/09/01 09:38:52;;;;;;;;;;;20.00;64.40;;;;;;10219346;28;93859;-68
2023/09/01 09:43:54;;;;;;;;;;;20.00;64.30;;;;;;10206895;28;94280;-68
2023/09/01 09:48:58;;;;;;;;;;;20.10;64.50;;;;;;10220810;28;93326;-68
2023/09/01 09:54:02;;;;;;;;;;;20.10;64.50;;;;;;10213603;28;92593;-68
2023/09/01 09:59:04;;;;;;;;;;;20.10;64.30;;;;;;10226537;28;94763;-68
2023/09/01 10:04:09;;;;;;;;;;;20.10;64.30;;;;;;10230741;28;113849;-67
2023/09/01 10:09:10;;;;;;;;;;;20.10;64.20;;;;;;10221763;28;92300;-68
2023/09/01 10:14:13;;;;;;;;;;;20.10;64.20;;;;;;10225954;28;93836;-68
2023/09/01 10:19:17;;;;;;;;;;;20.10;64.20;;;;;;10209680;28;93563;-68
2023/09/01 10:24:19;;;;;;;;;;;20.10;64.40;;;;;;10213756;28;94990;-68
2023/09/01 10:29:31;;;;;;;;;;;20.10;64.20;;;;;;10218407;28;94777;-68
2023/09/01 10:34:32;;;;;;;;;;;20.10;64.30;;;;;;10223885;28;93491;-67
2023/09/01 10:39:34;;;;;;;;;;;20.20;64.40;;;;;;10201036;28;95104;-68
2023/09/01 10:44:39;;;;;;;;;;;20.10;64.10;;;;;;10231820;28;94101;-68
2023/09/01 10:49:55;;;;;;;;;;;20.20;64.10;;;;;;10219490;28;93402;-68
2023/09/01 10:55:03;;;;;;;;;;;20.10;64.10;;;;;;10196178;28;93914;-67
2023/09/01 11:00:28;;;;;;;;;;;20.20;64.70;;;;;;10216532;28;93506;-68
2023/09/01 11:05:37;;;;;;;;;;;20.20;64.60;;;;;;10207683;28;94849;-68
2023/09/01 11:10:39;;;;;;;;;;;20.20;64.50;;;;;;10211966;28;93005;-68
2023/09/01 11:15:47;;;;;;;;;;;20.20;64.50;;;;;;10218965;28;96662;-67
2023/09/01 11:20:52;;;;;;;;;;;20.20;64.50;;;;;;10203357;28;94454;-68
2023/09/01 11:25:56;;;;;;;;;;;20.10;64.50;;;;;;10218683;28;93705;-68
2023/09/01 11:31:01;;;;;;;;;;;20.20;64.50;;;;;;10216172;28;94934;-68
2023/09/01 11:36:07;;;;;;;;;;;20.20;64.50;;;;;;10211004;28;94428;-68
2023/09/01 11:41:14;;;;;;;;;;;20.20;64.60;;;;;;10222236;28;93464;-68
2023/09/01 11:46:16;;;;;;;;;;;20.20;64.60;;;;;;10225298;28;94492;-68
2023/09/01 11:51:18;;;;;;;;;;;20.20;64.60;;;;;;10220365;28;93737;-68
2023/09/01 11:56:22;;;;;;;;;;;20.20;64.70;;;;;;10203590;28;93402;-68
2023/09/01 12:01:41;;;;;;;;;;;20.20;64.70;;;;;;10206205;28;93777;-68
2023/09/01 12:06:46;;;;;;;;;;;20.20;64.70;;;;;;10225255;28;96858;-68
2023/09/01 12:11:52;;;;;;;;;;;20.20;64.80;;;;;;10251289;28;94479;-68
2023/09/01 12:16:56;;;;;;;;;;;20.20;64.80;;;;;;10215395;28;94033;-68
2023/09/01 12:21:59;;;;;;;;;;;20.20;64.80;;;;;;10187946;28;93403;-67
2023/09/01 12:27:01;;;;;;;;;;;20.20;64.90;;;;;;10230773;28;93508;-67
2023/09/01 12:32:03;;;;;;;;;;;20.20;64.80;;;;;;10215639;28;93652;-68
2023/09/01 12:37:06;;;;;;;;;;;20.20;64.80;;;;;;10201679;28;94462;-68
2023/09/01 12:42:08;;;;;;;;;;;20.30;64.90;;;;;;10215370;28;93681;-68
2023/09/01 12:47:10;;;;;;;;;;;20.30;64.90;;;;;;10234467;28;94818;-68
2023/09/01 12:52:11;;;;;;;;;;;20.30;65.90;;;;;;10227740;28;93469;-68
2023/09/01 12:57:15;;;;;;;;;;;20.30;65.00;;;;;;10227697;28;95919;-68
2023/09/01 13:02:17;;;;;;;;;;;20.20;65.00;;;;;;10226005;28;93979;-68
2023/09/01 13:07:20;;;;;;;;;;;20.30;65.10;;;;;;10211893;28;94680;-68
2023/09/01 13:12:22;;;;;;;;;;;20.20;65.10;;;;;;10212081;28;93654;-68
2023/09/01 13:17:25;;;;;;;;;;;20.20;65.10;;;;;;10226907;28;93935;-68
2023/09/01 13:22:28;;;;;;;;;;;20.20;65.20;;;;;;10216303;28;94582;-67
2023/09/01 13:27:30;;;;;;;;;;;20.20;65.20;;;;;;10221955;28;93527;-69
2023/09/01 13:32:31;;;;;;;;;;;20.20;65.30;;;;;;10223175;28;92735;-68
2023/09/01 13:37:33;;;;;;;;;;;20.10;65.30;;;;;;10215708;28;93431;-68
2023/09/01 13:42:34;;;;;;;;;;;20.10;65.20;;;;;;10210536;28;93437;-67
2023/09/01 13:47:36;;;;;;;;;;;20.20;65.30;;;;;;10209331;28;96212;-68
2023/09/01 13:52:38;;;;;;;;;;;20.20;65.30;;;;;;10210465;28;94829;-68
2023/09/01 13:57:40;;;;;;;;;;;20.20;65.30;;;;;;10215339;28;96048;-68
2023/09/01 14:02:43;;;;;;;;;;;20.20;65.30;;;;;;10214580;28;94127;-68
2023/09/01 14:07:45;;;;;;;;;;;20.20;65.30;;;;;;10222978;28;94442;-68
2023/09/01 14:12:47;;;;;;;;;;;20.20;65.30;;;;;;10231747;28;94242;-68
2023/09/01 14:17:49;;;;;;;;;;;20.20;65.50;;;;;;10230300;28;93483;-68
2023/09/01 14:22:50;;;;;;;;;;;20.30;65.60;;;;;;10220520;28;94107;-69
2023/09/01 14:27:52;;;;;;;;;;;20.40;65.70;;;;;;10227511;28;94143;-68
2023/09/01 14:32:55;;;;;;;;;;;20.40;65.60;;;;;;10228127;28;93734;-67
2023/09/01 14:38:14;;;;;;;;;;;20.40;65.40;;;;;;10221353;28;97189;-67
2023/09/01 14:43:16;;;;;;;;;;;20.40;65.60;;;;;;10230407;28;94527;-67
2023/09/01 14:48:18;;;;;;;;;;;20.40;65.70;;;;;;10210802;28;94083;-68
2023/09/01 14:53:20;;;;;;;;;;;20.30;65.70;;;;;;10203197;28;93393;-67
2023/09/01 14:58:22;;;;;;;;;;;20.30;65.70;;;;;;10217772;28;92672;-67
2023/09/01 15:03:24;;;;;;;;;;;20.30;65.80;;;;;;10224948;28;94079;-68
2023/09/01 15:08:27;;;;;;;;;;;20.30;65.80;;;;;;10213781;28;94616;-67
2023/09/01 15:13:28;;;;;;;;;;;20.30;65.90;;;;;;10204771;28;93787;-68
2023/09/01 15:18:31;;;;;;;;;;;20.30;65.90;;;;;;10214385;28;94499;-68
2023/09/01 15:23:33;;;;;;;;;;;20.30;65.90;;;;;;10221567;28;93551;-68
2023/09/01 15:28:34;;;;;;;;;;;20.30;66.00;;;;;;10228741;28;96799;-68
2023/09/01 15:33:36;;;;;;;;;;;20.30;66.90;;;;;;10213258;28;94375;-68
2023/09/01 15:38:38;;;;;;;;;;;20.30;65.80;;;;;;10220224;28;93873;-67
2023/09/01 15:43:40;;;;;;;;;;;20.30;65.80;;;;;;10224780;28;93410;-68
2023/09/01 15:48:41;;;;;;;;;;;20.30;65.90;;;;;;10216564;28;93465;-68
2023/09/01 15:53:43;;;;;;;;;;;20.30;65.90;;;;;;10229847;28;94801;-68
2023/09/01 15:58:45;;;;;;;;;;;20.30;65.80;;;;;;10248449;28;93952;-68
2023/09/01 16:03:46;;;;;;;;;;;20.30;65.90;;;;;;10206315;28;93364;-68
2023/09/01 16:08:56;;;;;;;;;;;20.30;65.90;;;;;;10211696;28;93297;-68
2023/09/01 16:13:58;;;;;;;;;;;20.30;65.90;;;;;;10222900;28;94414;-68
2023/09/01 16:19:00;;;;;;;;;;;20.30;65.90;;;;;;10229237;28;97154;-68
2023/09/01 16:24:01;;;;;;;;;;;20.40;65.90;;;;;;10207946;28;93443;-68
2023/09/01 16:29:03;;;;;;;;;;;20.40;65.80;;;;;;10202017;28;94645;-68
2023/09/01 16:34:08;;;;;;;;;;;20.40;65.80;;;;;;10217653;28;94369;-68
2023/09/01 16:39:12;;;;;;;;;;;20.40;65.90;;;;;;10213417;28;94619;-68
2023/09/01 16:44:14;;;;;;;;;;;20.40;65.90;;;;;;10216126;28;94506;-68
2023/09/01 16:49:16;;;;;;;;;;;20.30;65.90;;;;;;10219845;28;94535;-68
2023/09/01 16:54:17;;;;;;;;;;;20.30;65.90;;;;;;10227280;28;93676;-68
2023/09/01 16:59:19;;;;;;;;;;;20.30;65.90;;;;;;10233084;28;93437;-68
2023/09/01 17:04:20;;;;;;;;;;;20.30;65.90;;;;;;10213404;28;93542;-68
2023/09/01 17:09:22;;;;;;;;;;;20.30;66.00;;;;;;10215286;28;96727;-68
2023/09/01 17:14:27;;;;;;;;;;;20.30;66.10;;;;;;10207400;28;94148;-67
2023/09/01 17:19:28;;;;;;;;;;;20.30;66.10;;;;;;10217199;28;94024;-68
2023/09/01 17:24:30;;;;;;;;;;;20.30;66.30;;;;;;10217975;28;93453;-68
2023/09/01 17:29:32;;;;;;;;;;;20.30;66.40;;;;;;10225290;28;93804;-68
2023/09/01 17:34:33;;;;;;;;;;;20.30;66.40;;;;;;10205846;28;93477;-68
2023/09/01 17:39:38;;;;;;;;;;;20.30;66.40;;;;;;10221720;28;94692;-68
2023/09/01 17:44:40;;;;;;;;;;;20.30;66.50;;;;;;10217724;28;92685;-68
2023/09/01 17:49:42;;;;;;;;;;;20.20;66.50;;;;;;10223476;28;93444;-68
2023/09/01 17:54:44;;;;;;;;;;;20.20;66.60;;;;;;10204409;28;94509;-69
2023/09/01 17:59:45;;;;;;;;;;;20.20;66.80;;;;;;10242069;28;95831;-68
2023/09/01 18:04:47;;;;;;;;;;;20.20;66.60;;;;;;10214088;28;93487;-69
2023/09/01 18:09:49;;;;;;;;;;;20.20;66.80;;;;;;10224503;28;93749;-68
2023/09/01 18:14:50;;;;;;;;;;;20.20;66.40;;;;;;10224158;28;94605;-69
2023/09/01 18:19:52;;;;;;;;;;;20.20;66.70;;;;;;10226906;28;94421;-68
2023/09/01 18:24:55;;;;;;;;;;;20.20;66.40;;;;;;10237156;28;93950;-69
2023/09/01 18:30:00;;;;;;;;;;;20.20;66.60;;;;;;10208316;28;94776;-68
2023/09/01 18:35:08;;;;;;;;;;;20.20;66.60;;;;;;10199938;28;94028;-67
2023/09/01 18:40:30;;;;;;;;;;;20.20;66.60;;;;;;10218957;28;93448;-68
2023/09/01 18:45:34;;;;;;;;;;;20.10;66.60;;;;;;10213067;28;94415;-68
2023/09/01 18:50:41;;;;;;;;;;;20.20;66.70;;;;;;10212539;28;96173;-68
2023/09/01 18:55:44;;;;;;;;;;;20.10;66.70;;;;;;10210937;28;93212;-68
2023/09/01 19:00:46;;;;;;;;;;;20.10;66.70;;;;;;10236744;28;93743;-69
2023/09/01 19:05:50;;;;;;;;;;;20.20;66.70;;;;;;10209952;28;94687;-69
2023/09/01 19:10:53;;;;;;;;;;;20.10;66.80;;;;;;10224485;28;94684;-69
2023/09/01 19:15:59;;;;;;;;;;;20.10;66.70;;;;;;10237909;28;93866;-68
2023/09/01 19:21:01;;;;;;;;;;;20.10;66.80;;;;;;10221825;28;94606;-68
2023/09/01 19:26:03;;;;;;;;;;;20.10;66.80;;;;;;10235817;28;92820;-68
2023/09/01 19:31:06;;;;;;;;;;;20.10;66.80;;;;;;10211463;28;93710;-68
2023/09/01 19:36:09;;;;;;;;;;;20.10;66.80;;;;;;10216006;28;94514;-68
2023/09/01 19:41:11;;;;;;;;;;;20.10;66.80;;;;;;10214181;28;95934;-68
2023/09/01 19:46:13;;;;;;;;;;;20.10;66.80;;;;;;10238696;28;93512;-67
2023/09/01 19:51:15;;;;;;;;;;;20.10;66.80;;;;;;10215833;28;96557;-67
2023/09/01 19:56:18;;;;;;;;;;;20.10;66.80;;;;;;10224768;28;94139;-68
2023/09/01 20:01:21;;;;;;;;;;;20.10;66.80;;;;;;10221328;28;94663;-67
2023/09/01 20:06:25;;;;;;;;;;;20.10;66.70;;;;;;10214075;28;94659;-68
2023/09/01 20:11:27;;;;;;;;;;;20.10;66.60;;;;;;10220734;28;94504;-68
2023/09/01 20:16:30;;;;;;;;;;;20.10;66.70;;;;;;10208074;28;92719;-68
2023/09/01 20:21:32;;;;;;;;;;;20.20;66.80;;;;;;10227428;28;93566;-68
2023/09/01 20:26:33;;;;;;;;;;;20.10;67.60;;;;;;10226001;28;94860;-69
2023/09/01 20:31:35;;;;;;;;;;;20.10;66.50;;;;;;10212661;28;96908;-68
2023/09/01 20:36:39;;;;;;;;;;;20.20;66.60;;;;;;10234990;28;93734;-68
2023/09/01 20:41:41;;;;;;;;;;;20.20;66.50;;;;;;10233743;28;94680;-69
2023/09/01 20:46:42;;;;;;;;;;;20.20;66.40;;;;;;10225734;28;94118;-68
2023/09/01 20:51:44;;;;;;;;;;;20.20;66.40;;;;;;10219965;28;94284;-68
2023/09/01 20:56:46;;;;;;;;;;;20.20;66.40;;;;;;10228909;28;94542;-68
2023/09/01 21:01:47;;;;;;;;;;;20.20;66.40;;;;;;10231353;28;94402;-68
2023/09/01 21:06:49;;;;;;;;;;;20.20;66.40;;;;;;10228575;28;93736;-68
2023/09/01 21:11:51;;;;;;;;;;;20.20;66.40;;;;;;10226391;28;94603;-68
2023/09/01 21:16:52;;;;;;;;;;;20.20;66.30;;;;;;10212736;28;93759;-68
2023/09/01 21:21:56;;;;;;;;;;;20.20;66.30;;;;;;10210272;28;95882;-69
2023/09/01 21:26:58;;;;;;;;;;;20.20;66.20;;;;;;10218117;28;92665;-67
2023/09/01 21:32:00;;;;;;;;;;;20.20;66.30;;;;;;10212649;28;93464;-68
2023/09/01 21:37:01;;;;;;;;;;;20.30;66.30;;;;;;10208067;28;94805;-67
2023/09/01 21:42:04;;;;;;;;;;;20.30;66.20;;;;;;10214654;28;94372;-68
2023/09/01 21:47:06;;;;;;;;;;;20.20;66.20;;;;;;10211779;28;94184;-68
2023/09/01 21:52:07;;;;;;;;;;;20.30;66.20;;;;;;10234128;28;94247;-68
2023/09/01 21:57:09;;;;;;;;;;;20.30;66.20;;;;;;10223934;28;93176;-68
2023/09/01 22:02:11;;;;;;;;;;;20.30;66.20;;;;;;10226937;28;94636;-67
2023/09/01 22:07:13;;;;;;;;;;;20.30;66.20;;;;;;10198451;28;93386;-68
2023/09/01 22:12:14;;;;;;;;;;;20.30;66.20;;;;;;10210607;28;95881;-68
2023/09/01 22:17:16;;;;;;;;;;;20.30;66.20;;;;;;10223969;28;94467;-68
2023/09/01 22:22:18;;;;;;;;;;;20.30;66.30;;;;;;10210577;28;93732;-67
2023/09/01 22:27:20;;;;;;;;;;;20.20;66.20;;;;;;10218541;28;94604;-68
2023/09/01 22:32:21;;;;;;;;;;;20.30;67.40;;;;;;10205605;28;94341;-67
2023/09/01 22:37:25;;;;;;;;;;;20.30;66.40;;;;;;10224731;28;93798;-68
2023/09/01 22:42:27;;;;;;;;;;;20.20;66.30;;;;;;10212281;28;93561;-68
2023/09/01 22:47:29;;;;;;;;;;;20.20;66.30;;;;;;10237079;28;93868;-68
2023/09/01 22:52:31;;;;;;;;;;;20.20;66.50;;;;;;10210903;28;93339;-68
2023/09/01 22:57:32;;;;;;;;;;;20.20;66.40;;;;;;10223569;28;94028;-68
2023/09/01 23:02:34;;;;;;;;;;;20.20;66.50;;;;;;10222832;28;96873;-68
2023/09/01 23:07:36;;;;;;;;;;;20.20;66.60;;;;;;10208850;28;94817;-68
2023/09/01 23:12:38;;;;;;;;;;;20.20;66.60;;;;;;10209034;28;94428;-68
2023/09/01 23:17:40;;;;;;;;;;;20.20;66.60;;;;;;10207786;28;93215;-68
2023/09/01 23:22:41;;;;;;;;;;;20.10;66.60;;;;;;10216722;28;93980;-68
2023/09/01 23:27:43;;;;;;;;;;;20.20;66.70;;;;;;10202451;28;94500;-68
2023/09/01 23:32:45;;;;;;;;;;;20.20;67.80;;;;;;10212489;28;93536;-68
2023/09/01 23:37:46;;;;;;;;;;;20.20;66.80;;;;;;10206172;28;92606;-68
2023/09/01 23:42:48;;;;;;;;;;;20.10;67.80;;;;;;10219328;28;93524;-68
2023/09/01 23:47:51;;;;;;;;;;;20.10;67.00;;;;;;10213825;28;94274;-68
2023/09/01 23:52:53;;;;;;;;;;;20.10;67.00;;;;;;10205175;28;95892;-68
2023/09/01 23:57:58;;;;;;;;;;;20.10;66.90;;;;;;10227900;28;95630;-68
